Time;durP1;ratioP1;P1;durP2;ratioP2;P2;SDS_P1;SDS_P2;PMS_P1;PMS_P2;Temp;Humidity;BMP_temperature;BMP_pressure;BME280_temperature;BME280_humidity;BME280_pressure;Samples;Min_cycle;Max_cycle;Signal;HPM_P1;HPM_P2
2023/05/16 00:01:57;;;;;;;11.25;9.40;;;;;;;;;;5073325;28;20500;-60
2023/05/16 00:04:25;;;;;;;11.63;9.38;;;;;;;;;;5073376;28;20500;-60
2023/05/16 00:06:52;;;;;;;10.88;9.00;;;;;;;;;;5073075;28;20527;-60
2023/05/16 00:09:21;;;;;;;13.20;10.82;;;;;;;;;;5073197;28;20052;-59
2023/05/16 00:11:49;;;;;;;;;;;;;;;;;;5073501;28;20524;-60
2023/05/16 00:14:20;;;;;;;12.55;9.98;;;;;;;;;;5073370;28;20285;-60
2023/05/16 00:16:50;;;;;;;11.80;10.23;;;;;;;;;;5073161;28;20075;-60
2023/05/16 00:19:16;;;;;;;11.45;9.55;;;;;;;;;;5073254;28;20053;-60
2023/05/16 00:21:44;;;;;;;13.13;10.60;;;;;;;;;;5073097;28;20420;-60
2023/05/16 00:24:10;;;;;;;12.10;9.75;;;;;;;;;;5073034;28;20075;-60
2023/05/16 00:26:37;;;;;;;12.73;10.20;;;;;;;;;;5073105;28;20056;-60
2023/05/16 00:29:04;;;;;;;13.55;9.98;;;;;;;;;;5072961;28;20048;-60
2023/05/16 00:31:32;;;;;;;11.40;9.52;;;;;;;;;;5072990;28;20106;-60
2023/05/16 00:33:59;;;;;;;10.68;8.77;;;;;;;;;;5072837;28;20485;-60
2023/05/16 00:36:26;;;;;;;11.90;8.35;;;;;;;;;;5072918;28;20056;-60
2023/05/16 00:38:53;;;;;;;14.38;9.60;;;;;;;;;;5072891;28;20059;-60
2023/05/16 00:41:20;;;;;;;10.68;8.93;;;;;;;;;;5072891;28;20049;-60
2023/05/16 00:43:47;;;;;;;11.35;8.35;;;;;;;;;;5072879;28;20060;-60
2023/05/16 00:46:14;;;;;;;11.00;8.82;;;;;;;;;;5072657;28;20401;-60
2023/05/16 00:48:42;;;;;;;11.30;9.48;;;;;;;;;;5072609;28;20049;-60
2023/05/16 00:51:09;;;;;;;10.98;9.23;;;;;;;;;;5072382;28;20052;-60
2023/05/16 00:53:37;;;;;;;9.80;8.15;;;;;;;;;;5072548;28;20059;-60
2023/05/16 00:56:05;;;;;;;10.45;8.30;;;;;;;;;;5076240;28;20086;-60
2023/05/16 00:58:32;;;;;;;9.73;8.05;;;;;;;;;;5076683;28;20402;-60
2023/05/16 01:01:00;;;;;;;8.48;7.07;;;;;;;;;;5076788;28;20398;-60
2023/05/16 01:03:28;;;;;;;8.40;6.63;;;;;;;;;;5076773;28;20052;-60
2023/05/16 01:05:57;;;;;;;8.55;6.63;;;;;;;;;;5076807;28;20052;-60
2023/05/16 01:08:24;;;;;;;8.80;6.85;;;;;;;;;;5076722;28;20504;-60
2023/05/16 01:10:55;;;;;;;8.05;6.53;;;;;;;;;;5076515;28;20049;-60
2023/05/16 01:13:24;;;;;;;6.95;5.75;;;;;;;;;;5076251;28;20060;-60
2023/05/16 01:15:56;;;;;;;7.10;5.63;;;;;;;;;;5076106;28;20055;-60
2023/05/16 01:18:25;;;;;;;6.90;5.50;;;;;;;;;;5076443;28;20063;-60
2023/05/16 01:20:55;;;;;;;7.72;6.53;;;;;;;;;;5076151;28;20413;-60
2023/05/16 01:23:35;;;;;;;6.43;5.30;;;;;;;;;;5076383;28;20178;-60
2023/05/16 01:26:02;;;;;;;;;;;;;;;;;;5076619;28;20056;-60
2023/05/16 01:28:30;;;;;;;6.35;4.70;;;;;;;;;;5076338;28;20289;-60
2023/05/16 01:30:57;;;;;;;4.95;4.43;;;;;;;;;;5076179;28;20049;-60
2023/05/16 01:33:24;;;;;;;7.07;4.53;;;;;;;;;;5075794;28;20048;-60
2023/05/16 01:35:55;;;;;;;7.22;4.88;;;;;;;;;;5075947;28;20056;-60
2023/05/16 01:38:25;;;;;;;6.15;4.63;;;;;;;;;;5075977;28;20067;-60
2023/05/16 01:40:54;;;;;;;6.38;5.10;;;;;;;;;;5075969;28;20052;-60
2023/05/16 01:43:25;;;;;;;6.20;4.82;;;;;;;;;;5075771;28;20055;-60
2023/05/16 01:45:57;;;;;;;6.13;4.85;;;;;;;;;;5076069;28;20053;-60
2023/05/16 01:48:27;;;;;;;5.28;4.20;;;;;;;;;;5075741;28;20057;-60
2023/05/16 01:50:57;;;;;;;4.68;3.90;;;;;;;;;;5075696;28;20056;-60
2023/05/16 01:53:27;;;;;;;5.68;4.22;;;;;;;;;;5075632;28;20059;-60
2023/05/16 01:55:56;;;;;;;4.00;3.53;;;;;;;;;;5075556;28;20056;-61
2023/05/16 01:58:25;;;;;;;4.65;3.55;;;;;;;;;;5075493;28;20473;-60
2023/05/16 02:00:54;;;;;;;4.28;3.70;;;;;;;;;;5075449;28;20048;-60
2023/05/16 02:03:21;;;;;;;3.90;3.45;;;;;;;;;;5075719;28;20075;-60
2023/05/16 02:05:47;;;;;;;4.65;3.10;;;;;;;;;;5075568;28;20489;-60
2023/05/16 02:08:16;;;;;;;4.53;3.50;;;;;;;;;;5075664;28;20049;-59
2023/05/16 02:10:43;;;;;;;3.90;3.08;;;;;;;;;;5074984;28;20071;-58
2023/05/16 02:13:10;;;;;;;3.92;3.17;;;;;;;;;;5074973;28;20065;-58
2023/05/16 02:15:36;;;;;;;4.53;2.90;;;;;;;;;;5075114;28;20049;-58
2023/05/16 02:18:05;;;;;;;3.28;2.78;;;;;;;;;;5075539;28;20063;-59
2023/05/16 02:20:32;;;;;;;3.90;2.80;;;;;;;;;;5075202;28;20049;-60
2023/05/16 02:22:59;;;;;;;3.53;2.10;;;;;;;;;;5074866;28;20055;-61
2023/05/16 02:25:25;;;;;;;2.45;1.92;;;;;;;;;;5065035;28;20402;-60
2023/05/16 02:27:52;;;;;;;3.42;2.10;;;;;;;;;;5054839;28;20057;-59
2023/05/16 02:30:19;;;;;;;4.30;2.10;;;;;;;;;;5054929;28;20052;-60
2023/05/16 02:32:47;;;;;;;5.93;2.47;;;;;;;;;;5055019;28;20052;-60
2023/05/16 02:35:18;;;;;;;5.95;2.50;;;;;;;;;;5054654;28;20064;-61
2023/05/16 02:37:45;;;;;;;6.88;3.33;;;;;;;;;;5054573;28;20410;-61
2023/05/16 02:40:13;;;;;;;5.25;3.40;;;;;;;;;;5054782;28;20494;-61
2023/05/16 02:42:39;;;;;;;9.50;3.85;;;;;;;;;;5054556;28;20068;-61
2023/05/16 02:45:07;;;;;;;8.98;4.28;;;;;;;;;;5054779;28;20388;-61
2023/05/16 02:47:33;;;;;;;8.15;3.70;;;;;;;;;;5054691;28;20402;-61
2023/05/16 02:50:00;;;;;;;9.15;3.55;;;;;;;;;;5054687;28;20067;-61
2023/05/16 02:52:29;;;;;;;10.02;3.30;;;;;;;;;;5054224;28;20486;-61
2023/05/16 02:54:56;;;;;;;10.13;3.72;;;;;;;;;;5054601;28;20057;-61
2023/05/16 02:57:23;;;;;;;12.30;4.15;;;;;;;;;;5054573;28;20052;-61
2023/05/16 02:59:49;;;;;;;7.85;3.30;;;;;;;;;;5054630;28;20052;-60
2023/05/16 03:02:16;;;;;;;9.98;3.58;;;;;;;;;;5054391;28;20056;-60
2023/05/16 03:04:43;;;;;;;11.30;4.20;;;;;;;;;;5054543;28;20060;-61
2023/05/16 03:07:10;;;;;;;9.63;3.70;;;;;;;;;;5053989;28;20059;-61
2023/05/16 03:09:38;;;;;;;7.70;4.07;;;;;;;;;;5054258;28;20053;-60
2023/05/16 03:12:05;;;;;;;9.55;4.30;;;;;;;;;;5053666;28;20057;-64
2023/05/16 03:14:32;;;;;;;9.43;4.32;;;;;;;;;;5054203;28;20060;-60
2023/05/16 03:16:59;;;;;;;11.60;4.78;;;;;;;;;;5053627;28;20068;-60
2023/05/16 03:19:26;;;;;;;8.60;5.15;;;;;;;;;;5054129;28;20053;-60
2023/05/16 03:21:56;;;;;;;11.60;5.03;;;;;;;;;;5053687;28;20049;-60
2023/05/16 03:24:24;;;;;;;12.45;5.30;;;;;;;;;;5054079;28;20064;-61
2023/05/16 03:26:52;;;;;;;12.15;5.78;;;;;;;;;;5052821;28;20057;-61
2023/05/16 03:29:24;;;;;;;9.38;4.25;;;;;;;;;;5053828;28;20076;-61
2023/05/16 03:31:51;;;;;;;11.85;4.85;;;;;;;;;;5053828;28;20072;-61
2023/05/16 03:34:21;;;;;;;9.35;4.25;;;;;;;;;;5053730;28;20482;-60
2023/05/16 03:36:48;;;;;;;11.43;4.55;;;;;;;;;;5053400;28;20427;-60
2023/05/16 03:39:15;;;;;;;11.70;3.80;;;;;;;;;;5053687;28;20063;-60
2023/05/16 03:41:42;;;;;;;8.52;3.65;;;;;;;;;;5053693;28;20049;-60
2023/05/16 03:44:13;;;;;;;10.48;3.40;;;;;;;;;;5053462;28;20057;-61
2023/05/16 03:46:40;;;;;;;12.07;4.57;;;;;;;;;;5053514;28;20079;-61
2023/05/16 03:49:07;;;;;;;13.25;3.58;;;;;;;;;;5053434;28;20490;-61
2023/05/16 03:51:34;;;;;;;11.43;4.13;;;;;;;;;;5052933;28;20457;-60
2023/05/16 03:54:00;;;;;;;9.10;3.38;;;;;;;;;;5053382;28;20056;-61
2023/05/16 03:56:27;;;;;;;11.10;4.18;;;;;;;;;;5053295;28;20406;-60
2023/05/16 03:58:54;;;;;;;14.63;4.65;;;;;;;;;;5053247;28;20049;-60
2023/05/16 04:01:22;;;;;;;10.98;4.07;;;;;;;;;;5053283;28;20509;-61
2023/05/16 04:03:51;;;;;;;9.82;4.00;;;;;;;;;;5053169;28;20053;-61
2023/05/16 04:06:18;;;;;;;8.68;4.32;;;;;;;;;;5053137;28;20490;-61
2023/05/16 04:08:44;;;;;;;14.20;4.82;;;;;;;;;;5053138;28;20059;-60
2023/05/16 04:11:12;;;;;;;9.18;4.80;;;;;;;;;;5052437;28;20049;-60
2023/05/16 04:13:38;;;;;;;11.63;5.38;;;;;;;;;;5052870;28;20049;-60
2023/05/16 04:16:06;;;;;;;13.82;5.32;;;;;;;;;;5052732;28;20053;-60
2023/05/16 04:18:34;;;;;;;12.18;5.38;;;;;;;;;;5052575;28;20053;-61
2023/05/16 04:21:01;;;;;;;10.73;4.00;;;;;;;;;;5052707;28;20048;-61
2023/05/16 04:23:28;;;;;;;11.13;4.60;;;;;;;;;;5052534;28;20056;-60
2023/05/16 04:25:56;;;;;;;13.48;4.45;;;;;;;;;;5052805;28;20048;-61
2023/05/16 04:28:23;;;;;;;10.68;3.80;;;;;;;;;;5052095;28;20057;-60
2023/05/16 04:30:50;;;;;;;15.73;3.63;;;;;;;;;;5052461;28;20422;-61
2023/05/16 04:33:17;;;;;;;12.38;4.15;;;;;;;;;;5052509;28;20053;-61
2023/05/16 04:35:45;;;;;;;11.85;3.65;;;;;;;;;;5052556;28;20060;-61
2023/05/16 04:38:12;;;;;;;13.93;3.72;;;;;;;;;;5052682;28;20075;-61
2023/05/16 04:40:40;;;;;;;11.50;3.47;;;;;;;;;;5052593;28;20045;-61
2023/05/16 04:43:07;;;;;;;13.82;3.90;;;;;;;;;;5052523;28;20056;-60
2023/05/16 04:45:34;;;;;;;13.35;3.63;;;;;;;;;;5052780;28;20053;-61
2023/05/16 04:48:01;;;;;;;12.05;3.25;;;;;;;;;;5052300;28;20053;-60
2023/05/16 04:50:28;;;;;;;14.52;3.78;;;;;;;;;;5052207;28;20520;-60
2023/05/16 04:52:56;;;;;;;11.68;3.60;;;;;;;;;;5052331;28;20048;-60
2023/05/16 04:55:23;;;;;;;11.20;3.25;;;;;;;;;;5052159;28;20418;-61
2023/05/16 04:57:50;;;;;;;11.57;3.20;;;;;;;;;;5052296;28;20057;-60
2023/05/16 05:00:17;;;;;;;13.27;3.60;;;;;;;;;;5052059;28;20057;-61
2023/05/16 05:02:44;;;;;;;12.45;3.85;;;;;;;;;;5052164;28;20045;-61
2023/05/16 05:05:11;;;;;;;11.55;3.30;;;;;;;;;;5051909;28;20510;-60
2023/05/16 05:07:38;;;;;;;12.63;3.20;;;;;;;;;;5052450;28;20598;-61
2023/05/16 05:10:07;;;;;;;11.38;3.47;;;;;;;;;;5052410;28;20049;-60
2023/05/16 05:12:34;;;;;;;11.40;3.67;;;;;;;;;;5052028;28;20140;-60
2023/05/16 05:15:01;;;;;;;11.05;3.65;;;;;;;;;;5052376;28;20049;-61
2023/05/16 05:17:28;;;;;;;10.90;3.05;;;;;;;;;;5052337;28;20053;-61
2023/05/16 05:19:55;;;;;;;9.73;3.00;;;;;;;;;;5052431;28;20053;-61
2023/05/16 05:22:27;;;;;;;11.73;3.05;;;;;;;;;;5052222;28;20072;-60
2023/05/16 05:24:54;;;;;;;11.77;3.15;;;;;;;;;;5052598;28;20052;-61
2023/05/16 05:27:24;;;;;;;12.18;2.75;;;;;;;;;;5052368;28;20076;-59
2023/05/16 05:29:51;;;;;;;14.65;3.47;;;;;;;;;;5052252;28;20057;-59
2023/05/16 05:32:17;;;;;;;11.68;3.35;;;;;;;;;;5051967;28;20053;-59
2023/05/16 05:34:44;;;;;;;10.60;3.33;;;;;;;;;;5052089;28;20372;-59
2023/05/16 05:37:11;;;;;;;9.35;3.15;;;;;;;;;;5051642;28;20056;-59
2023/05/16 05:39:38;;;;;;;14.20;3.88;;;;;;;;;;5052050;28;20053;-60
2023/05/16 05:42:05;;;;;;;13.00;3.13;;;;;;;;;;5055504;28;20056;-60
2023/05/16 05:44:33;;;;;;;12.30;3.38;;;;;;;;;;5055565;28;20421;-59
2023/05/16 05:47:00;;;;;;;12.73;3.10;;;;;;;;;;5055561;28;20056;-60
2023/05/16 05:49:27;;;;;;;9.82;2.70;;;;;;;;;;5061205;28;20053;-60
2023/05/16 05:51:54;;;;;;;12.98;3.00;;;;;;;;;;5065231;28;20431;-59
2023/05/16 05:54:21;;;;;;;11.43;2.88;;;;;;;;;;5067460;28;20052;-59
2023/05/16 05:56:48;;;;;;;11.25;3.88;;;;;;;;;;5058969;28;20048;-59
2023/05/16 05:59:15;;;;;;;9.52;2.92;;;;;;;;;;5067421;28;20053;-59
2023/05/16 06:01:46;;;;;;;8.63;2.50;;;;;;;;;;5056056;28;20052;-59
2023/05/16 06:04:13;;;;;;;12.77;3.80;;;;;;;;;;5055540;28;20502;-60
2023/05/16 06:06:45;;;;;;;10.00;3.00;;;;;;;;;;5072773;28;20059;-59
2023/05/16 06:09:12;;;;;;;8.90;3.00;;;;;;;;;;5060141;28;20057;-60
2023/05/16 06:11:39;;;;;;;10.40;2.33;;;;;;;;;;5066803;28;20052;-60
2023/05/16 06:14:06;;;;;;;14.18;2.63;;;;;;;;;;5066341;28;20045;-60
2023/05/16 06:16:33;;;;;;;12.38;2.90;;;;;;;;;;5055358;28;20049;-60
2023/05/16 06:19:01;;;;;;;13.80;3.55;;;;;;;;;;5065354;28;20049;-60
2023/05/16 06:21:28;;;;;;;13.57;3.08;;;;;;;;;;5062011;28;20060;-60
2023/05/16 06:23:55;;;;;;;10.15;2.13;;;;;;;;;;5069069;28;20040;-60
2023/05/16 06:26:22;;;;;;;9.57;2.85;;;;;;;;;;5074723;28;20056;-59
2023/05/16 06:28:49;;;;;;;11.35;2.60;;;;;;;;;;5074622;28;20417;-59
2023/05/16 06:31:16;;;;;;;10.27;2.40;;;;;;;;;;5074584;28;20052;-59
2023/05/16 06:33:42;;;;;;;12.35;3.10;;;;;;;;;;5074725;28;20053;-59
2023/05/16 06:36:10;;;;;;;12.05;3.00;;;;;;;;;;5075398;28;20064;-59
2023/05/16 06:38:37;;;;;;;9.18;2.75;;;;;;;;;;5074664;28;20064;-59
2023/05/16 06:41:04;;;;;;;9.52;2.88;;;;;;;;;;5074849;28;20402;-59
2023/05/16 06:43:31;;;;;;;10.63;3.40;;;;;;;;;;5074535;28;20056;-59
2023/05/16 06:45:58;;;;;;;12.38;3.40;;;;;;;;;;5074497;28;20521;-60
2023/05/16 06:48:25;;;;;;;8.23;2.75;;;;;;;;;;5074136;28;20053;-59
2023/05/16 06:50:51;;;;;;;9.18;3.28;;;;;;;;;;5074630;28;20059;-59
2023/05/16 06:53:19;;;;;;;7.40;2.88;;;;;;;;;;5073533;28;20053;-59
2023/05/16 06:55:47;;;;;;;9.60;2.92;;;;;;;;;;5074617;28;20048;-60
2023/05/16 06:58:14;;;;;;;10.98;2.97;;;;;;;;;;5074353;28;20056;-59
2023/05/16 07:00:41;;;;;;;10.57;2.28;;;;;;;;;;5074466;28;20487;-59
2023/05/16 07:03:07;;;;;;;10.68;2.75;;;;;;;;;;5074324;28;20086;-59
2023/05/16 07:05:34;;;;;;;16.17;2.50;;;;;;;;;;5074364;28;20486;-59
2023/05/16 07:08:01;;;;;;;7.30;2.53;;;;;;;;;;5074123;28;20052;-59
2023/05/16 07:10:29;;;;;;;6.75;2.58;;;;;;;;;;5074215;28;20063;-59
2023/05/16 07:12:57;;;;;;;7.65;2.58;;;;;;;;;;5073657;28;20052;-60
2023/05/16 07:15:23;;;;;;;8.02;2.65;;;;;;;;;;5074156;28;20048;-59
2023/05/16 07:17:50;;;;;;;6.22;2.67;;;;;;;;;;5073954;28;20059;-59
2023/05/16 07:20:17;;;;;;;8.43;3.05;;;;;;;;;;5073966;28;20053;-59
2023/05/16 07:22:44;;;;;;;5.13;2.72;;;;;;;;;;5061536;28;20391;-59
2023/05/16 07:25:11;;;;;;;9.23;3.20;;;;;;;;;;5053480;28;20057;-60
2023/05/16 07:27:43;;;;;;;11.07;3.10;;;;;;;;;;5053925;28;20057;-60
2023/05/16 07:30:11;;;;;;;9.52;2.97;;;;;;;;;;5054123;28;20083;-59
2023/05/16 07:32:38;;;;;;;10.52;2.95;;;;;;;;;;5053998;28;20049;-59
2023/05/16 07:35:05;;;;;;;6.10;2.75;;;;;;;;;;5053978;28;20052;-60
2023/05/16 07:37:32;;;;;;;9.40;3.50;;;;;;;;;;5053396;28;20052;-60
2023/05/16 07:39:58;;;;;;;7.80;2.85;;;;;;;;;;5053658;28;20060;-60
2023/05/16 07:42:25;;;;;;;6.80;2.13;;;;;;;;;;5053579;28;20049;-60
2023/05/16 07:44:53;;;;;;;6.53;2.58;;;;;;;;;;5053345;28;20052;-57
2023/05/16 07:47:20;;;;;;;7.72;2.22;;;;;;;;;;5053256;28;20059;-59
2023/05/16 07:49:47;;;;;;;7.88;2.45;;;;;;;;;;5054608;28;20380;-57
2023/05/16 07:52:14;;;;;;;5.10;2.05;;;;;;;;;;5072995;28;20417;-59
2023/05/16 07:54:41;;;;;;;6.18;2.25;;;;;;;;;;5073155;28;20048;-59
2023/05/16 07:57:07;;;;;;;6.38;1.90;;;;;;;;;;5073380;28;20063;-59
2023/05/16 07:59:34;;;;;;;7.20;2.15;;;;;;;;;;5072929;28;20075;-59
2023/05/16 08:02:02;;;;;;;6.03;2.03;;;;;;;;;;5073446;28;20052;-59
2023/05/16 08:04:29;;;;;;;5.90;1.92;;;;;;;;;;5072812;28;20057;-60
2023/05/16 08:06:56;;;;;;;7.30;2.13;;;;;;;;;;5073241;28;20067;-60
2023/05/16 08:09:23;;;;;;;6.07;2.38;;;;;;;;;;5072517;28;20053;-60
2023/05/16 08:11:50;;;;;;;8.68;2.38;;;;;;;;;;5072788;28;20052;-60
2023/05/16 08:14:17;;;;;;;7.80;2.60;;;;;;;;;;5073026;28;20462;-60
2023/05/16 08:16:44;;;;;;;7.53;2.60;;;;;;;;;;5073102;28;20052;-59
2023/05/16 08:19:12;;;;;;;7.60;2.90;;;;;;;;;;5072746;28;20055;-60
2023/05/16 08:21:39;;;;;;;6.65;2.40;;;;;;;;;;5069153;28;20056;-60
2023/05/16 08:24:06;;;;;;;6.22;2.38;;;;;;;;;;5052758;28;20049;-61
2023/05/16 08:26:34;;;;;;;5.57;1.90;;;;;;;;;;5053023;28;20059;-60
2023/05/16 08:29:01;;;;;;;7.13;2.22;;;;;;;;;;5052987;28;20422;-60
2023/05/16 08:31:28;;;;;;;5.88;1.80;;;;;;;;;;5052646;28;20056;-59
2023/05/16 08:33:54;;;;;;;5.57;2.17;;;;;;;;;;5052854;28;20056;-60
2023/05/16 08:36:23;;;;;;;4.75;1.40;;;;;;;;;;5053037;28;20398;-59
2023/05/16 08:38:50;;;;;;;4.50;1.73;;;;;;;;;;5052671;28;20053;-59
2023/05/16 08:41:17;;;;;;;4.30;1.80;;;;;;;;;;5052865;28;20057;-59
2023/05/16 08:43:44;;;;;;;4.82;1.58;;;;;;;;;;5052749;28;20049;-59
2023/05/16 08:46:11;;;;;;;5.13;1.58;;;;;;;;;;5052815;28;20064;-59
2023/05/16 08:48:38;;;;;;;4.70;1.50;;;;;;;;;;5052559;28;20533;-59
2023/05/16 08:51:06;;;;;;;5.93;1.88;;;;;;;;;;5052706;28;20406;-59
2023/05/16 08:53:39;;;;;;;5.35;1.63;;;;;;;;;;5052785;28;20053;-59
2023/05/16 08:56:07;;;;;;;5.82;1.92;;;;;;;;;;5052879;28;20049;-59
2023/05/16 08:58:34;;;;;;;6.00;1.65;;;;;;;;;;5052511;28;20061;-59
2023/05/16 09:01:05;;;;;;;4.93;2.08;;;;;;;;;;5052847;28;20068;-59
2023/05/16 09:03:32;;;;;;;6.93;2.15;;;;;;;;;;5052703;28;20049;-59
2023/05/16 09:05:59;;;;;;;5.15;2.38;;;;;;;;;;5052652;28;20056;-59
2023/05/16 09:08:26;;;;;;;3.53;1.60;;;;;;;;;;5052424;28;20057;-59
2023/05/16 09:10:54;;;;;;;4.72;1.98;;;;;;;;;;5052198;28;20063;-60
2023/05/16 09:13:21;;;;;;;4.82;1.60;;;;;;;;;;5052112;28;20049;-59
2023/05/16 09:16:07;;;;;;;4.93;1.50;;;;;;;;;;5054290;28;20078;-59
2023/05/16 09:18:35;;;;;;;4.93;1.55;;;;;;;;;;5056559;28;20057;-60
2023/05/16 09:21:02;;;;;;;5.40;1.87;;;;;;;;;;5056519;28;20367;-59
2023/05/16 09:23:29;;;;;;;4.80;1.70;;;;;;;;;;5056052;28;20051;-60
2023/05/16 09:25:58;;;;;;;3.90;1.38;;;;;;;;;;5056126;28;20056;-59
2023/05/16 09:28:25;;;;;;;5.05;1.48;;;;;;;;;;5055718;28;20053;-59
2023/05/16 09:30:53;;;;;;;3.72;1.30;;;;;;;;;;5056004;28;20057;-59
2023/05/16 09:33:22;;;;;;;4.88;1.50;;;;;;;;;;5055861;28;20053;-59
2023/05/16 09:35:54;;;;;;;3.72;1.40;;;;;;;;;;5055979;28;20052;-59
2023/05/16 09:38:21;;;;;;;3.97;1.42;;;;;;;;;;5055952;28;20057;-59
2023/05/16 09:40:50;;;;;;;4.97;1.60;;;;;;;;;;5055363;28;20057;-59
2023/05/16 09:43:18;;;;;;;5.00;1.80;;;;;;;;;;5056099;28;20053;-59
2023/05/16 09:45:46;;;;;;;7.20;1.70;;;;;;;;;;5055561;28;20045;-59
2023/05/16 09:48:14;;;;;;;5.55;1.52;;;;;;;;;;5055234;28;20052;-59
2023/05/16 09:50:41;;;;;;;5.45;1.52;;;;;;;;;;5055592;28;20485;-58
2023/05/16 09:53:08;;;;;;;5.03;1.45;;;;;;;;;;5055173;28;20057;-58
2023/05/16 09:55:35;;;;;;;3.83;1.52;;;;;;;;;;5055142;28;20049;-59
2023/05/16 09:58:02;;;;;;;4.07;1.40;;;;;;;;;;5055294;28;20060;-58
2023/05/16 10:00:31;;;;;;;5.68;1.50;;;;;;;;;;5055047;28;20062;-59
2023/05/16 10:02:58;;;;;;;3.85;1.15;;;;;;;;;;5055393;28;20060;-61
2023/05/16 10:05:26;;;;;;;5.55;1.55;;;;;;;;;;5055273;28;20059;-58
2023/05/16 10:07:53;;;;;;;7.65;2.00;;;;;;;;;;5055204;28;20474;-59
2023/05/16 10:10:20;;;;;;;4.72;1.55;;;;;;;;;;5055184;28;20053;-59
2023/05/16 10:12:47;;;;;;;4.65;1.70;;;;;;;;;;5054928;28;20057;-60
2023/05/16 10:15:14;;;;;;;4.35;1.52;;;;;;;;;;5055087;28;20056;-59
2023/05/16 10:17:44;;;;;;;4.30;1.55;;;;;;;;;;5054758;28;20057;-58
2023/05/16 10:20:12;;;;;;;4.20;1.23;;;;;;;;;;5055042;28;20052;-59
2023/05/16 10:22:42;;;;;;;4.03;1.38;;;;;;;;;;5054950;28;20060;-59
2023/05/16 10:25:12;;;;;;;3.97;1.40;;;;;;;;;;5054684;28;20529;-59
2023/05/16 10:27:39;;;;;;;4.88;1.80;;;;;;;;;;5053703;28;20063;-60
2023/05/16 10:30:08;;;;;;;2.88;1.02;;;;;;;;;;5054935;28;20067;-60
2023/05/16 10:32:36;;;;;;;6.30;1.20;;;;;;;;;;5054482;28;20135;-60
2023/05/16 10:35:04;;;;;;;5.78;1.65;;;;;;;;;;5054722;28;20049;-60
2023/05/16 10:37:32;;;;;;;4.32;1.60;;;;;;;;;;5054857;28;20401;-59
2023/05/16 10:39:59;;;;;;;4.63;1.38;;;;;;;;;;5054625;28;20053;-60
2023/05/16 10:42:26;;;;;;;10.27;1.80;;;;;;;;;;5054431;28;20053;-60
2023/05/16 10:44:53;;;;;;;6.32;1.25;;;;;;;;;;5054624;28;20056;-57
2023/05/16 10:47:20;;;;;;;4.15;1.50;;;;;;;;;;5054218;28;20056;-58
2023/05/16 10:49:47;;;;;;;2.88;1.30;;;;;;;;;;5054239;28;20053;-58
2023/05/16 10:52:16;;;;;;;4.40;1.00;;;;;;;;;;5054224;28;20477;-58
2023/05/16 10:54:44;;;;;;;3.50;1.40;;;;;;;;;;5054389;28;20045;-58
2023/05/16 10:57:14;;;;;;;4.20;1.10;;;;;;;;;;5053921;28;20048;-59
2023/05/16 10:59:41;;;;;;;3.63;1.30;;;;;;;;;;5053935;28;20057;-58
2023/05/16 11:02:23;;;;;;;3.63;1.25;;;;;;;;;;5053959;28;20052;-58
2023/05/16 11:04:50;;;;;;;3.78;1.48;;;;;;;;;;5052322;28;20048;-58
2023/05/16 11:07:19;;;;;;;3.38;1.30;;;;;;;;;;5054150;28;20056;-59
2023/05/16 11:09:52;;;;;;;3.92;1.20;;;;;;;;;;5054198;28;20053;-58
2023/05/16 11:12:20;;;;;;;4.45;1.35;;;;;;;;;;5053752;28;20060;-58
2023/05/16 11:14:51;;;;;;;2.90;1.17;;;;;;;;;;5053930;28;20049;-57
2023/05/16 11:17:21;;;;;;;4.07;1.17;;;;;;;;;;5056106;28;20064;-59
2023/05/16 11:19:48;;;;;;;3.70;1.20;;;;;;;;;;5052283;28;20060;-58
2023/05/16 11:22:26;;;;;;;4.35;1.30;;;;;;;;;;5053450;28;20053;-58
2023/05/16 11:24:55;;;;;;;4.45;1.20;;;;;;;;;;5053969;28;20405;-58
2023/05/16 11:27:22;;;;;;;;;;;;;;;;;;5054040;28;20076;-59
2023/05/16 11:29:49;;;;;;;3.90;1.35;;;;;;;;;;5053475;28;20341;-59
2023/05/16 11:32:19;;;;;;;3.53;1.20;;;;;;;;;;5053652;28;20060;-59
2023/05/16 11:34:47;;;;;;;3.72;1.10;;;;;;;;;;5053586;28;20049;-58
2023/05/16 11:37:13;;;;;;;4.43;1.27;;;;;;;;;;5053235;28;20076;-58
2023/05/16 11:39:42;;;;;;;4.15;1.50;;;;;;;;;;5052992;28;20052;-58
2023/05/16 11:42:09;;;;;;;5.57;1.60;;;;;;;;;;5053128;28;20504;-58
2023/05/16 11:44:36;;;;;;;3.03;1.35;;;;;;;;;;5053114;28;20053;-57
2023/05/16 11:47:03;;;;;;;4.00;1.35;;;;;;;;;;5053243;28;20072;-59
2023/05/16 11:49:30;;;;;;;5.57;1.67;;;;;;;;;;5053286;28;20454;-58
2023/05/16 11:51:57;;;;;;;3.75;1.30;;;;;;;;;;5053144;28;20053;-58
2023/05/16 11:54:24;;;;;;;3.25;1.40;;;;;;;;;;5053398;28;20379;-59
2023/05/16 11:56:52;;;;;;;3.60;1.00;;;;;;;;;;5053208;28;20060;-58
2023/05/16 11:59:20;;;;;;;4.78;1.23;;;;;;;;;;5053323;28;20482;-59
2023/05/16 12:01:48;;;;;;;6.13;1.42;;;;;;;;;;5053113;28;20079;-58
2023/05/16 12:04:15;;;;;;;3.60;1.20;;;;;;;;;;5052842;28;20053;-59
2023/05/16 12:06:43;;;;;;;5.88;1.30;;;;;;;;;;5052654;28;20053;-58
2023/05/16 12:09:12;;;;;;;3.95;1.50;;;;;;;;;;5052858;28;20049;-58
2023/05/16 12:11:39;;;;;;;;;;;;;;;;;;5052919;28;20056;-59
2023/05/16 12:14:07;;;;;;;4.82;1.00;;;;;;;;;;5054504;28;19920;-58
2023/05/16 12:16:35;;;;;;;2.78;1.10;;;;;;;;;;5052424;28;20049;-59
2023/05/16 12:19:03;;;;;;;3.83;1.30;;;;;;;;;;5052430;28;20529;-59
2023/05/16 12:21:31;;;;;;;4.85;1.10;;;;;;;;;;5052806;28;20049;-59
2023/05/16 12:24:01;;;;;;;3.95;1.20;;;;;;;;;;5053239;28;20057;-59
2023/05/16 12:26:29;;;;;;;2.75;1.20;;;;;;;;;;5053144;28;20426;-59
2023/05/16 12:28:59;;;;;;;2.75;1.27;;;;;;;;;;5052335;28;20053;-59
2023/05/16 12:31:27;;;;;;;3.28;1.30;;;;;;;;;;5052587;28;20056;-60
2023/05/16 12:33:54;;;;;;;2.95;1.25;;;;;;;;;;5052769;28;20494;-59
2023/05/16 12:36:22;;;;;;;3.75;1.35;;;;;;;;;;5052023;28;20049;-59
2023/05/16 12:38:49;;;;;;;3.63;1.33;;;;;;;;;;5052753;28;20087;-59
2023/05/16 12:41:17;;;;;;;3.75;1.33;;;;;;;;;;5052297;28;20057;-60
2023/05/16 12:43:44;;;;;;;2.60;1.30;;;;;;;;;;5052789;28;20052;-60
2023/05/16 12:46:11;;;;;;;8.95;1.83;;;;;;;;;;5052750;28;20053;-60
2023/05/16 12:48:41;;;;;;;7.28;1.90;;;;;;;;;;5052394;28;20053;-58
2023/05/16 12:51:12;;;;;;;4.35;1.52;;;;;;;;;;5051537;28;20052;-58
2023/05/16 12:53:44;;;;;;;4.22;1.40;;;;;;;;;;5052597;28;20076;-58
2023/05/16 12:56:11;;;;;;;3.47;1.30;;;;;;;;;;5052050;28;20056;-59
2023/05/16 12:58:37;;;;;;;4.85;1.30;;;;;;;;;;5052689;28;20080;-59
2023/05/16 13:01:04;;;;;;;5.00;1.48;;;;;;;;;;5052334;28;20063;-58
2023/05/16 13:03:31;;;;;;;4.28;1.30;;;;;;;;;;5052408;28;20057;-58
2023/05/16 13:05:59;;;;;;;4.78;1.48;;;;;;;;;;5052529;28;20414;-59
2023/05/16 13:08:27;;;;;;;3.70;1.10;;;;;;;;;;5052365;28;20417;-59
2023/05/16 13:10:54;;;;;;;3.97;1.30;;;;;;;;;;5052240;28;20060;-59
2023/05/16 13:13:21;;;;;;;4.22;1.58;;;;;;;;;;5051625;28;20052;-58
2023/05/16 13:15:48;;;;;;;4.38;1.60;;;;;;;;;;5051854;28;20049;-59
2023/05/16 13:18:14;;;;;;;4.13;1.35;;;;;;;;;;5052379;28;20049;-59
2023/05/16 13:20:42;;;;;;;2.75;1.17;;;;;;;;;;5052218;28;20076;-59
2023/05/16 13:23:10;;;;;;;3.67;1.50;;;;;;;;;;5052082;28;20053;-59
2023/05/16 13:25:40;;;;;;;3.75;1.30;;;;;;;;;;5051772;28;20045;-61
2023/05/16 13:28:07;;;;;;;4.00;1.08;;;;;;;;;;5052038;28;20482;-58
2023/05/16 13:30:34;;;;;;;3.17;1.38;;;;;;;;;;5051881;28;20049;-59
2023/05/16 13:33:01;;;;;;;3.30;1.38;;;;;;;;;;5052121;28;20064;-59
2023/05/16 13:35:28;;;;;;;4.97;1.45;;;;;;;;;;5051773;28;20045;-58
2023/05/16 13:37:54;;;;;;;5.78;1.40;;;;;;;;;;5051966;28;20057;-58
2023/05/16 13:40:23;;;;;;;4.50;1.30;;;;;;;;;;5052108;28;20412;-58
2023/05/16 13:42:50;;;;;;;4.13;1.58;;;;;;;;;;5051782;28;20053;-58
2023/05/16 13:45:17;;;;;;;3.90;1.30;;;;;;;;;;5052113;28;20056;-59
2023/05/16 13:47:44;;;;;;;6.10;1.40;;;;;;;;;;5051984;28;20053;-59
2023/05/16 13:50:11;;;;;;;3.42;1.15;;;;;;;;;;5051636;28;20056;-59
2023/05/16 13:52:41;;;;;;;4.35;1.60;;;;;;;;;;5052179;28;20053;-59
2023/05/16 13:55:08;;;;;;;7.03;1.85;;;;;;;;;;5051948;28;20053;-59
2023/05/16 13:57:36;;;;;;;3.42;1.10;;;;;;;;;;5051692;28;20049;-59
2023/05/16 14:00:07;;;;;;;3.33;1.27;;;;;;;;;;5051434;28;20057;-59
2023/05/16 14:02:33;;;;;;;4.70;1.38;;;;;;;;;;5054382;28;20057;-59
2023/05/16 14:05:00;;;;;;;5.43;1.15;;;;;;;;;;5055168;28;20053;-57
2023/05/16 14:07:27;;;;;;;3.60;1.00;;;;;;;;;;5054947;28;20049;-60
2023/05/16 14:09:54;;;;;;;3.33;1.10;;;;;;;;;;5054696;28;20053;-57
2023/05/16 14:12:21;;;;;;;2.95;1.00;;;;;;;;;;5054680;28;20052;-57
2023/05/16 14:14:49;;;;;;;3.45;1.10;;;;;;;;;;5054632;28;20056;-58
2023/05/16 14:17:16;;;;;;;2.90;1.20;;;;;;;;;;5054565;28;20064;-58
2023/05/16 14:19:42;;;;;;;3.30;1.48;;;;;;;;;;5054772;28;20053;-59
2023/05/16 14:22:09;;;;;;;4.28;1.08;;;;;;;;;;5054716;28;20394;-58
2023/05/16 14:24:36;;;;;;;3.83;1.20;;;;;;;;;;5054656;28;20060;-59
2023/05/16 14:27:03;;;;;;;4.38;1.00;;;;;;;;;;5054385;28;20057;-58
2023/05/16 14:29:30;;;;;;;4.78;1.05;;;;;;;;;;5054874;28;20053;-59
2023/05/16 14:31:58;;;;;;;2.67;1.10;;;;;;;;;;5055054;28;20053;-58
2023/05/16 14:34:25;;;;;;;3.75;0.98;;;;;;;;;;5054430;28;20053;-58
2023/05/16 14:36:52;;;;;;;4.28;1.30;;;;;;;;;;5054388;28;20076;-58
2023/05/16 14:39:19;;;;;;;4.95;1.27;;;;;;;;;;5054630;28;20055;-58
2023/05/16 14:41:46;;;;;;;2.70;1.20;;;;;;;;;;5054527;28;20048;-58
2023/05/16 14:44:13;;;;;;;3.22;1.30;;;;;;;;;;5054537;28;20057;-59